createdAt,value
2018-08-18T01:40:57.919Z,0
2018-08-18T03:25:35.214Z,3
2018-08-18T03:33:05.673Z,7
2018-08-18T03:37:35.910Z,10
2018-08-18T03:40:06.111Z,13
2018-08-18T03:42:06.211Z,17
2018-08-18T03:42:36.254Z,20
2018-08-18T03:43:36.317Z,23
2018-08-18T03:44:06.357Z,27
2018-08-18T03:44:36.359Z,30
2018-08-18T03:45:36.463Z,33
2018-08-18T03:46:06.463Z,37
2018-08-18T03:46:36.507Z,40
2018-08-18T03:47:06.568Z,43
2018-08-18T03:47:36.525Z,47
2018-08-18T03:48:06.609Z,50
2018-08-18T03:48:36.588Z,57
2018-08-18T03:49:06.631Z,60
2018-08-18T03:50:06.697Z,63
2018-08-18T03:51:06.822Z,67
2018-08-18T03:51:36.810Z,73
2018-08-18T03:52:06.808Z,77
2018-08-18T03:52:36.855Z,87
2018-08-18T03:53:06.868Z,93
2018-08-18T03:53:36.894Z,100
2018-08-18T03:54:06.945Z,110
2018-08-18T03:54:36.967Z,120
2018-08-18T03:55:06.989Z,130
2018-08-18T03:55:37.029Z,143
2018-08-18T03:56:07.059Z,153
2018-08-18T03:56:37.141Z,167
2018-08-18T03:57:07.173Z,177
2018-08-18T03:57:37.145Z,183
2018-08-18T03:58:07.215Z,193
2018-08-18T03:58:37.202Z,200
2018-08-18T03:59:07.233Z,207
2018-08-18T03:59:37.313Z,213
2018-08-18T04:00:07.350Z,223
2018-08-18T04:00:37.414Z,237
2018-08-18T04:01:07.432Z,250
2018-08-18T04:01:37.568Z,263
2018-08-18T04:02:07.585Z,277
2018-08-18T04:02:37.463Z,290
2018-08-18T04:03:07.522Z,300
2018-08-18T04:03:37.563Z,313
2018-08-18T04:04:07.584Z,323
2018-08-18T04:04:37.618Z,340
2018-08-18T04:05:07.605Z,357
2018-08-18T04:05:37.709Z,373
2018-08-18T04:06:07.940Z,393
2018-08-18T04:06:37.729Z,410
2018-08-18T04:07:07.759Z,427
2018-08-18T04:07:37.806Z,437
2018-08-18T04:08:07.811Z,450
2018-08-18T04:08:37.884Z,467
2018-08-18T04:09:07.949Z,483
2018-08-18T04:09:37.920Z,507
2018-08-18T04:10:07.953Z,527
2018-08-18T04:10:38.032Z,550
2018-08-18T04:11:08.043Z,570
2018-08-18T04:11:38.053Z,587
2018-08-18T04:12:08.104Z,607
2018-08-18T04:12:38.123Z,627
2018-08-18T04:13:08.163Z,647
2018-08-18T04:13:38.175Z,667
2018-08-18T04:14:08.264Z,683
2018-08-18T04:14:38.242Z,697
2018-08-18T04:15:08.273Z,713
2018-08-18T04:15:38.257Z,733
2018-08-18T04:16:08.354Z,757
2018-08-18T04:16:38.375Z,780
2018-08-18T04:17:08.385Z,810
2018-08-18T04:17:38.429Z,843
2018-08-18T04:18:08.452Z,877
2018-08-18T04:18:38.458Z,910
2018-08-18T04:19:08.536Z,943
2018-08-18T04:19:38.505Z,970
2018-08-18T04:20:08.557Z,990
2018-08-18T04:20:38.572Z,1007
2018-08-18T04:21:08.644Z,1020
2018-08-18T04:21:38.624Z,1030
2018-08-18T04:22:08.662Z,1040
2018-08-18T04:22:38.755Z,1043
2018-08-18T04:23:08.719Z,1050
2018-08-18T04:23:38.745Z,1060
2018-08-18T04:24:08.802Z,1077
2018-08-18T04:24:38.808Z,1100
2018-08-18T04:25:08.895Z,1127
2018-08-18T04:25:38.914Z,1153
2018-08-18T04:26:08.982Z,1177
2018-08-18T04:26:38.928Z,1193
2018-08-18T04:27:08.984Z,1203
2018-08-18T04:27:39.008Z,1210
2018-08-18T04:28:09.026Z,1213
2018-08-18T04:28:39.096Z,1217
2018-08-18T04:29:09.084Z,1223
2018-08-18T04:29:39.115Z,1237
2018-08-18T04:30:09.161Z,1260
2018-08-18T04:30:39.182Z,1287
2018-08-18T04:31:09.312Z,1340
2018-08-18T04:31:39.237Z,1410
2018-08-18T04:32:09.347Z,1487
2018-08-18T04:32:39.348Z,1547
2018-08-18T04:33:09.381Z,1603
2018-08-18T04:33:39.397Z,1653
2018-08-18T04:34:09.454Z,1703
2018-08-18T04:34:39.479Z,1750
2018-08-18T04:35:09.570Z,1807
2018-08-18T04:35:39.501Z,1870
2018-08-18T04:36:09.584Z,1930
2018-08-18T04:36:39.581Z,1993
2018-08-18T04:37:09.649Z,2057
2018-08-18T04:37:39.688Z,2123
2018-08-18T04:38:09.650Z,2187
2018-08-18T04:38:39.686Z,2247
2018-08-18T04:39:09.705Z,2303
2018-08-18T04:39:39.732Z,2347
2018-08-18T04:40:09.761Z,2387
2018-08-18T04:40:39.844Z,2430
2018-08-18T04:41:09.826Z,2460
2018-08-18T04:41:39.920Z,2487
2018-08-18T04:42:09.908Z,2530
2018-08-18T04:42:39.917Z,2583
2018-08-18T04:43:09.948Z,2653
2018-08-18T04:43:39.990Z,2713
2018-08-18T04:44:10.019Z,2783
2018-08-18T04:44:40.063Z,2870
2018-08-18T04:45:10.153Z,2967
2018-08-18T04:45:40.110Z,3077
2018-08-18T04:46:10.148Z,3203
2018-08-18T04:46:40.284Z,3303
2018-08-18T04:47:10.208Z,3353
2018-08-18T04:48:10.340Z,3327
2018-08-18T04:48:40.334Z,3277
2018-08-18T04:49:10.343Z,3220
2018-08-18T04:49:40.367Z,3147
2018-08-18T04:50:10.413Z,3060
2018-08-18T04:50:40.466Z,2993
2018-08-18T04:51:10.483Z,2987
2018-08-18T04:51:40.535Z,3027
2018-08-18T04:52:10.570Z,3127
2018-08-18T04:52:40.601Z,3293
2018-08-18T04:53:10.605Z,3500
2018-08-18T04:53:40.654Z,3700
2018-08-18T04:54:10.655Z,3807
2018-08-18T04:55:10.721Z,3770
2018-08-18T04:55:40.791Z,3743
2018-08-18T04:56:10.798Z,3717
2018-08-18T04:56:40.850Z,3720
2018-08-18T04:57:10.836Z,3737
2018-08-18T04:57:40.885Z,3697
2018-08-18T04:58:10.915Z,3657
2018-08-18T04:59:11.017Z,3670
2018-08-18T04:59:40.985Z,3723
2018-08-18T05:00:11.032Z,3793
2018-08-18T05:00:41.061Z,3873
2018-08-18T05:01:11.098Z,3937
2018-08-18T05:01:41.142Z,4017
2018-08-18T05:02:11.248Z,4073
2018-08-18T05:02:41.216Z,4120
2018-08-18T05:03:11.223Z,4117
2018-08-18T05:03:41.278Z,4103
2018-08-18T05:04:11.288Z,4100
2018-08-18T05:04:41.342Z,4090
2018-08-18T05:05:11.376Z,4080
2018-08-18T05:05:41.383Z,4157
2018-08-18T05:06:11.421Z,4280
2018-08-18T05:06:41.481Z,4437
2018-08-18T05:07:11.483Z,4597
2018-08-18T05:07:41.479Z,4727
2018-08-18T05:08:11.573Z,4840
2018-08-18T05:08:41.568Z,4980
2018-08-18T05:09:11.549Z,5117
2018-08-18T05:09:41.652Z,5190
2018-08-18T05:10:11.619Z,5210
2018-08-18T05:10:41.671Z,5253
2018-08-18T05:11:11.703Z,5333
2018-08-18T05:11:42.002Z,5423
2018-08-18T05:12:11.800Z,5530
2018-08-18T05:12:41.784Z,5630
2018-08-18T05:13:11.801Z,5647
2018-08-18T05:13:41.822Z,5620
2018-08-18T05:14:11.856Z,5610
2018-08-18T05:14:41.889Z,5630
2018-08-18T05:15:11.937Z,5670
2018-08-18T05:15:41.956Z,5723
2018-08-18T05:16:11.980Z,5840
2018-08-18T05:16:42.011Z,6033
2018-08-18T05:17:12.073Z,6320
2018-08-18T05:17:42.087Z,6580
2018-08-18T05:18:12.138Z,6740
2018-08-18T05:18:42.133Z,6793
2018-08-18T05:19:12.220Z,6673
2018-08-18T05:19:42.291Z,6510
2018-08-18T05:20:12.266Z,6380
2018-08-18T05:20:42.412Z,6397
2018-08-18T05:21:12.298Z,6553
2018-08-18T05:21:42.350Z,6813
2018-08-18T05:22:12.400Z,7227
2018-08-18T05:22:42.440Z,7817
2018-08-18T05:23:12.442Z,8503
2018-08-18T05:23:42.457Z,9007
2018-08-18T05:24:12.493Z,9410
2018-08-18T05:24:42.521Z,9663
2018-08-18T05:25:12.561Z,9807
2018-08-18T05:25:42.657Z,9850
2018-08-18T05:26:12.677Z,9767
2018-08-18T05:26:42.722Z,9677
2018-08-18T05:27:12.708Z,9700
2018-08-18T05:27:42.712Z,9840
2018-08-18T05:28:12.771Z,10087
2018-08-18T05:28:42.792Z,10307
2018-08-18T05:29:12.798Z,10423
2018-08-18T05:29:42.811Z,10400
2018-08-18T05:30:12.875Z,10210
2018-08-18T05:30:42.876Z,9950
2018-08-18T05:31:12.931Z,9737
2018-08-18T05:31:42.942Z,9577
2018-08-18T05:32:12.967Z,9543
2018-08-18T05:32:43.025Z,9557
2018-08-18T05:33:13.048Z,9607
2018-08-18T05:33:43.059Z,9737
2018-08-18T05:34:13.161Z,9777
2018-08-18T05:34:43.123Z,9827
2018-08-18T05:35:13.195Z,9803
2018-08-18T05:35:43.218Z,9817
2018-08-18T05:36:13.246Z,9803
2018-08-18T05:36:43.248Z,9843
2018-08-18T05:37:13.307Z,9950
2018-08-18T05:37:43.303Z,10093
2018-08-18T05:38:13.386Z,10270
2018-08-18T05:38:43.440Z,10467
2018-08-18T05:39:13.450Z,10657
2018-08-18T05:39:43.487Z,10887
2018-08-18T05:40:13.501Z,11033
2018-08-18T05:40:43.544Z,11147
2018-08-18T05:41:13.597Z,11253
2018-08-18T05:41:43.617Z,11387
2018-08-18T05:42:13.581Z,11497
2018-08-18T05:42:43.673Z,11633
2018-08-18T05:43:13.684Z,11697
2018-08-18T05:43:43.749Z,11813
2018-08-18T05:44:13.747Z,11760
2018-08-18T05:44:43.736Z,11783
2018-08-18T05:45:13.808Z,11927
2018-08-18T05:45:43.848Z,12180
2018-08-18T05:46:13.874Z,12520
2018-08-18T05:46:43.909Z,12753
2018-08-18T05:47:13.927Z,12800
2018-08-18T05:47:44.114Z,12703
2018-08-18T05:48:14.053Z,12467
2018-08-18T05:48:44.025Z,12253
2018-08-18T05:49:14.055Z,12067
2018-08-18T05:49:44.116Z,11910
2018-08-18T05:50:14.118Z,11827
2018-08-18T05:50:44.178Z,11713
2018-08-18T05:51:14.185Z,11667
2018-08-18T05:51:44.231Z,11617
2018-08-18T05:52:14.240Z,11553
2018-08-18T05:52:44.290Z,11620
2018-08-18T05:53:14.301Z,11740
2018-08-18T05:53:44.342Z,12040
2018-08-18T05:54:14.364Z,12627
2018-08-18T05:54:44.409Z,13603
2018-08-18T05:55:14.390Z,14903
2018-08-18T05:55:44.471Z,16327
2018-08-18T05:56:14.488Z,17710
2018-08-18T05:56:44.484Z,18947
2018-08-18T05:57:14.533Z,19747
2018-08-18T05:57:44.591Z,20050
2018-08-18T05:58:14.635Z,19843
2018-08-18T05:58:44.604Z,19380
2018-08-18T05:59:14.682Z,18880
2018-08-18T05:59:44.682Z,18360
2018-08-18T06:00:14.704Z,17833
2018-08-18T06:00:44.721Z,17463
2018-08-18T06:01:14.753Z,17120
2018-08-18T06:01:44.814Z,16900
2018-08-18T06:02:14.824Z,16660
2018-08-18T06:02:44.846Z,16427
2018-08-18T06:03:14.940Z,16153
2018-08-18T06:03:44.917Z,15700
2018-08-18T06:04:14.952Z,15163
2018-08-18T06:04:44.969Z,14697
2018-08-18T06:05:15.016Z,14170
2018-08-18T06:05:45.131Z,13617
2018-08-18T06:06:15.068Z,12953
2018-08-18T06:06:45.094Z,12393
2018-08-18T06:07:15.137Z,12047
2018-08-18T06:07:45.161Z,11963
2018-08-18T06:08:15.294Z,11937
2018-08-18T06:08:45.272Z,11990
2018-08-18T06:09:15.246Z,12070
2018-08-18T06:09:45.359Z,12010
2018-08-18T06:10:15.390Z,11923
2018-08-18T06:10:45.401Z,11807
2018-08-18T06:11:15.369Z,11753
2018-08-18T06:11:45.436Z,11670
2018-08-18T06:12:15.475Z,11840
2018-08-18T06:12:45.515Z,12180
2018-08-18T06:13:15.622Z,12507
2018-08-18T06:13:45.582Z,12850
2018-08-18T06:14:15.621Z,13200
2018-08-18T06:14:45.628Z,13553
2018-08-18T06:15:15.615Z,13760
2018-08-18T06:15:45.726Z,13817
2018-08-18T06:16:15.679Z,13833
2018-08-18T06:16:45.723Z,13890
2018-08-18T06:17:15.745Z,14140
2018-08-18T06:17:45.818Z,14670
2018-08-18T06:18:15.825Z,15510
2018-08-18T06:18:45.892Z,16633
2018-08-18T06:19:15.908Z,17873
2018-08-18T06:19:45.899Z,19177
2018-08-18T06:20:15.927Z,20253
2018-08-18T06:20:45.955Z,21357
2018-08-18T06:21:15.997Z,22103
2018-08-18T06:21:46.020Z,22383
2018-08-18T06:22:16.071Z,22517
2018-08-18T06:22:46.083Z,22817
2018-08-18T06:23:16.167Z,23137
2018-08-18T06:23:46.154Z,23450
2018-08-18T06:24:16.171Z,23677
2018-08-18T06:24:46.235Z,23943
2018-08-18T06:25:16.288Z,24120
2018-08-18T06:25:46.269Z,24410
2018-08-18T06:26:16.362Z,24817
2018-08-18T06:26:46.328Z,25213
2018-08-18T06:27:16.456Z,25440
2018-08-18T06:27:46.432Z,25520
2018-08-18T06:28:16.501Z,25230
2018-08-18T06:28:46.490Z,24583
2018-08-18T06:29:16.524Z,23947
2018-08-18T06:29:46.612Z,23253
2018-08-18T06:30:16.585Z,22643
2018-08-18T06:30:46.578Z,22043
2018-08-18T06:31:16.634Z,21547
2018-08-18T06:31:46.672Z,21140
2018-08-18T06:32:16.716Z,20907
2018-08-18T06:32:46.917Z,20720
2018-08-18T06:33:16.816Z,20547
2018-08-18T06:33:46.847Z,20457
2018-08-18T06:34:16.788Z,20390
2018-08-18T06:34:47.081Z,20403
2018-08-18T06:35:16.895Z,20587
2018-08-18T06:35:46.955Z,20800
2018-08-18T06:36:16.985Z,21100
2018-08-18T06:36:46.997Z,21443
2018-08-18T06:37:17.011Z,21760
2018-08-18T06:37:47.090Z,21967
2018-08-18T06:38:17.131Z,22230
2018-08-18T06:38:47.112Z,22430
2018-08-18T06:39:17.138Z,22633
2018-08-18T06:39:47.167Z,22893
2018-08-18T06:40:17.208Z,23137
2018-08-18T06:40:47.242Z,23463
2018-08-18T06:41:17.373Z,23753
2018-08-18T06:41:47.437Z,24050
2018-08-18T06:42:17.328Z,24213
2018-08-18T06:42:47.337Z,24280
2018-08-18T06:43:17.416Z,24350
2018-08-18T06:43:47.392Z,24393
2018-08-18T06:44:17.452Z,24447
2018-08-18T06:44:47.497Z,24400
2018-08-18T06:45:17.534Z,24280
2018-08-18T06:45:47.513Z,23917
2018-08-18T06:46:17.525Z,23617
2018-08-18T06:46:47.571Z,23270
2018-08-18T06:47:17.610Z,23100
2018-08-18T06:47:47.686Z,23530
2018-08-18T06:48:17.686Z,23340
2018-08-18T06:48:47.692Z,23740
2018-08-18T06:49:17.741Z,24377
2018-08-18T06:49:47.738Z,25130
2018-08-18T06:50:17.789Z,25433
2018-08-18T06:50:47.823Z,26337
2018-08-18T06:51:17.837Z,26800
2018-08-18T06:51:47.922Z,27217
2018-08-18T06:52:17.908Z,27487
2018-08-18T06:52:47.950Z,27710
2018-08-18T06:53:17.987Z,28053
2018-08-18T06:53:48.007Z,29200
2018-08-18T06:54:18.048Z,28660
2018-08-18T06:54:48.143Z,28677
2018-08-18T06:55:18.265Z,28620
2018-08-18T06:55:48.127Z,28510
2018-08-18T06:56:18.225Z,28403
2018-08-18T06:56:48.224Z,28443
2018-08-18T06:57:18.279Z,28700
2018-08-18T06:57:48.234Z,29070
2018-08-18T06:58:18.580Z,29310
2018-08-18T06:58:48.304Z,29397
2018-08-18T06:59:18.373Z,29290
2018-08-18T06:59:48.391Z,29210
2018-08-18T07:00:18.462Z,28813
2018-08-18T07:00:48.485Z,28370
2018-08-18T07:01:18.458Z,27700
2018-08-18T07:01:48.562Z,26957
2018-08-18T07:02:18.589Z,26353
2018-08-18T07:02:48.609Z,26310
2018-08-18T07:03:48.670Z,28280
2018-08-18T07:04:18.666Z,29320
2018-08-18T07:04:48.731Z,30010
2018-08-18T07:05:18.702Z,30530
2018-08-18T07:05:48.772Z,31330
2018-08-18T07:06:18.835Z,31787
2018-08-18T07:06:48.804Z,32310
2018-08-18T07:07:18.905Z,32233
2018-08-18T07:07:48.858Z,31440
2018-08-18T07:08:18.902Z,30487
2018-08-18T07:08:48.972Z,29433
2018-08-18T07:09:18.964Z,28547
2018-08-18T07:09:48.996Z,27857
2018-08-18T07:10:19.021Z,26860
2018-08-18T07:10:49.060Z,26197
2018-08-18T07:11:19.134Z,25910
2018-08-18T07:11:49.148Z,25663
2018-08-18T07:12:19.153Z,25997
2018-08-18T07:12:49.180Z,26323
2018-08-18T07:13:19.256Z,26823
2018-08-18T07:13:49.268Z,27657
2018-08-18T07:14:19.296Z,27853
2018-08-18T07:14:49.347Z,27973
2018-08-18T07:15:19.315Z,28150
2018-08-18T07:15:49.402Z,28630
2018-08-18T07:16:19.416Z,29440
2018-08-18T07:16:49.468Z,29997
2018-08-18T07:17:19.459Z,29783
2018-08-18T07:17:49.537Z,29257
2018-08-18T07:18:19.565Z,28140
2018-08-18T07:18:49.632Z,26540
2018-08-18T07:19:19.598Z,24730
2018-08-18T07:19:49.633Z,22660
2018-08-18T07:20:19.640Z,20633
2018-08-18T07:20:49.711Z,19017
2018-08-18T07:21:19.746Z,17957
2018-08-18T07:21:49.797Z,16957
2018-08-18T07:22:19.836Z,16153
2018-08-18T07:22:49.839Z,15637
2018-08-18T07:23:19.851Z,15697
2018-08-18T07:23:49.942Z,15493
2018-08-18T07:24:19.972Z,16327
2018-08-18T07:24:49.936Z,16487
2018-08-18T07:25:19.951Z,16133
2018-08-18T07:25:50.029Z,15540
2018-08-18T07:26:20.049Z,15133
2018-08-18T07:26:50.076Z,15270
2018-08-18T07:27:20.103Z,16177
2018-08-18T07:27:50.140Z,16240
2018-08-18T07:28:20.267Z,16900
2018-08-18T07:28:50.399Z,16927
2018-08-18T07:29:20.188Z,16670
2018-08-18T07:29:50.273Z,17023
2018-08-18T07:30:20.300Z,17493
2018-08-18T07:30:50.323Z,17860
2018-08-18T07:31:20.317Z,18447
2018-08-18T07:31:50.395Z,19443
2018-08-18T07:32:20.371Z,20773
2018-08-18T07:32:50.445Z,22160
2018-08-18T07:33:20.445Z,23137
2018-08-18T07:33:50.521Z,23000
2018-08-18T07:34:20.536Z,22173
2018-08-18T07:34:50.536Z,21010
2018-08-18T07:35:20.557Z,20057
2018-08-18T07:35:50.588Z,19747
2018-08-18T07:36:20.656Z,19753
2018-08-18T07:36:50.690Z,20190
2018-08-18T07:37:20.707Z,20660
2018-08-18T07:37:50.751Z,21140
2018-08-18T07:38:20.748Z,21790
2018-08-18T07:38:50.861Z,22380
2018-08-18T07:39:20.823Z,22953
2018-08-18T07:39:50.848Z,23460
2018-08-18T07:40:20.869Z,22880
2018-08-18T07:40:50.902Z,21890
2018-08-18T07:41:20.933Z,20860
2018-08-18T07:41:51.005Z,20400
2018-08-18T07:42:20.993Z,20363
2018-08-18T07:42:51.043Z,20490
2018-08-18T07:43:21.100Z,22017
2018-08-18T07:43:51.184Z,22043
2018-08-18T07:44:21.241Z,22273
2018-08-18T07:44:51.166Z,21923
2018-08-18T07:45:21.232Z,20320
2018-08-18T07:45:51.291Z,19230
2018-08-18T07:46:21.331Z,19730
2018-08-18T07:46:51.268Z,19387
2018-08-18T07:47:21.349Z,20517
2018-08-18T07:47:51.371Z,22060
2018-08-18T07:48:21.418Z,24683
2018-08-18T07:48:51.489Z,22350
2018-08-18T07:49:21.461Z,19617
2018-08-18T07:49:51.524Z,18700
2018-08-18T07:50:21.503Z,18413
2018-08-18T07:50:51.535Z,18053
2018-08-18T07:51:21.547Z,17740
2018-08-18T07:51:51.576Z,17513
2018-08-18T07:52:21.655Z,18563
2018-08-18T07:52:51.655Z,21783
2018-08-18T07:53:21.745Z,23913
2018-08-18T07:53:51.722Z,23383
2018-08-18T07:54:21.738Z,21577
2018-08-18T07:54:51.772Z,17967
2018-08-18T07:55:21.824Z,17587
2018-08-18T07:55:51.839Z,16640
2018-08-18T07:56:21.869Z,16630
2018-08-18T07:57:21.915Z,16810
2018-08-18T07:57:51.947Z,16953
2018-08-18T07:58:21.996Z,17023
2018-08-18T07:58:52.081Z,16967
2018-08-18T07:59:22.105Z,16870
2018-08-18T07:59:52.147Z,16907
2018-08-18T08:00:22.112Z,16833
2018-08-18T08:00:52.136Z,16900
2018-08-18T08:01:22.176Z,16920
2018-08-18T08:01:52.196Z,17070
2018-08-18T08:02:22.226Z,17207
2018-08-18T08:02:52.254Z,17260
2018-08-18T08:03:22.336Z,17183
2018-08-18T08:03:52.352Z,17113
2018-08-18T08:04:22.450Z,17270
2018-08-18T08:04:52.410Z,17410
2018-08-18T08:05:22.422Z,17190
2018-08-18T08:05:52.543Z,17407
2018-08-18T08:06:22.499Z,17333
2018-08-18T08:06:52.532Z,17997
2018-08-18T08:07:22.591Z,18210
2018-08-18T08:07:52.650Z,18493
2018-08-18T08:08:22.621Z,18307
2018-08-18T08:08:52.656Z,17717
2018-08-18T08:09:22.768Z,17847
2018-08-18T08:09:52.726Z,18120
2018-08-18T08:10:22.764Z,18330
2018-08-18T08:10:52.751Z,18440
2018-08-18T08:11:22.860Z,18487
2018-08-18T08:11:52.854Z,19190
2018-08-18T08:12:22.929Z,21437
2018-08-18T08:12:53.091Z,24907
2018-08-18T08:13:22.957Z,26073
2018-08-18T08:13:53.004Z,24663
2018-08-18T08:14:23.064Z,22330
2018-08-18T08:14:53.068Z,19573
2018-08-18T08:15:23.067Z,19090
2018-08-18T08:15:53.114Z,19097
2018-08-18T08:16:23.125Z,19020
2018-08-18T08:16:53.141Z,19207
2018-08-18T08:17:23.209Z,19240
2018-08-18T08:17:53.236Z,19427
2018-08-18T08:18:23.377Z,19550
2018-08-18T08:18:53.295Z,19740
2018-08-18T08:19:23.337Z,19773
2018-08-18T08:19:53.345Z,19983
2018-08-18T08:20:23.377Z,19763
2018-08-18T08:20:53.414Z,19450
2018-08-18T08:21:23.420Z,19307
2018-08-18T08:21:53.480Z,18530
2018-08-18T08:22:23.498Z,17990
2018-08-18T08:22:53.518Z,17710
2018-08-18T08:23:23.580Z,17667
2018-08-18T08:23:53.600Z,17620
2018-08-18T08:24:23.603Z,17397
2018-08-18T08:24:53.625Z,17953
2018-08-18T08:25:23.693Z,18747
2018-08-18T08:25:53.681Z,19400
2018-08-18T08:26:23.724Z,19627
2018-08-18T08:26:53.807Z,20297
2018-08-18T08:27:23.816Z,20913
2018-08-18T08:27:53.805Z,21160
2018-08-18T08:28:23.830Z,21390
2018-08-18T08:28:53.920Z,22027
2018-08-18T08:29:24.024Z,22583
2018-08-18T08:29:53.926Z,23050
2018-08-18T08:30:23.961Z,24360
2018-08-18T08:30:53.998Z,26240
2018-08-18T08:31:24.010Z,28650
2018-08-18T08:31:54.046Z,31347
2018-08-18T08:32:24.078Z,34533
2018-08-18T08:32:54.116Z,37190
2018-08-18T08:33:24.137Z,37277
2018-08-18T08:33:54.189Z,38707
2018-08-18T08:34:24.246Z,39743
2018-08-18T08:34:54.364Z,40480
2018-08-18T08:35:24.302Z,40863
2018-08-18T08:35:54.353Z,40830
2018-08-18T08:36:24.360Z,40517
2018-08-18T08:36:54.513Z,39703
2018-08-18T08:37:24.448Z,38597
2018-08-18T08:37:54.437Z,38743
2018-08-18T08:38:24.487Z,39403
2018-08-18T08:38:54.523Z,40280
2018-08-18T08:39:24.769Z,41443
2018-08-18T08:39:54.554Z,42167
2018-08-18T08:40:24.699Z,42560
2018-08-18T08:40:54.625Z,43277
2018-08-18T08:41:24.635Z,44470
2018-08-18T08:41:54.692Z,46290
2018-08-18T08:42:24.703Z,47723
2018-08-18T08:42:54.741Z,48127
2018-08-18T08:43:24.785Z,48533
2018-08-18T08:43:54.790Z,47580
2018-08-18T08:44:24.858Z,47040
2018-08-18T08:44:54.869Z,47527
2018-08-18T08:45:24.880Z,48887
2018-08-18T08:45:54.929Z,50200
2018-08-18T08:46:24.939Z,50550
2018-08-18T08:46:54.980Z,50793
2018-08-18T08:47:25.016Z,51537
2018-08-18T08:47:55.053Z,52173
2018-08-18T08:48:25.142Z,51637
2018-08-18T08:48:55.109Z,50400
2018-08-18T08:49:25.177Z,48883
2018-08-18T08:49:55.184Z,48020
2018-08-18T08:50:25.212Z,47803
2018-08-18T08:50:55.303Z,47317
2018-08-18T08:51:25.247Z,47690
2018-08-18T08:51:55.297Z,46800
2018-08-18T08:52:25.380Z,45583
2018-08-18T08:52:55.352Z,45120
2018-08-18T08:53:25.412Z,42933
2018-08-18T08:53:55.415Z,41560
2018-08-18T08:54:25.539Z,42323
2018-08-18T08:54:55.484Z,43103
2018-08-18T08:55:25.528Z,42787
2018-08-18T08:55:55.577Z,41363
2018-08-18T08:56:25.639Z,39650
2018-08-18T08:56:55.617Z,38200
2018-08-18T08:57:25.655Z,37027
2018-08-18T08:57:55.701Z,35680
2018-08-18T08:58:25.719Z,35297
2018-08-18T08:58:55.842Z,36013
2018-08-18T08:59:25.813Z,37363
2018-08-18T08:59:55.866Z,38670
2018-08-18T09:00:25.899Z,39683
2018-08-18T09:00:55.899Z,41257
2018-08-18T09:01:25.922Z,43683
2018-08-18T09:01:55.945Z,70193
2018-08-18T09:02:25.963Z,66383
2018-08-18T09:02:56.039Z,49563
2018-08-18T09:03:26.039Z,64417
2018-08-18T09:03:56.064Z,67527
2018-08-18T09:04:26.094Z,74463
2018-08-18T09:04:56.136Z,73140
2018-08-18T09:05:26.148Z,59173
2018-08-18T09:05:56.192Z,50770
2018-08-18T09:06:26.174Z,52433
2018-08-18T09:06:56.275Z,47210
2018-08-18T09:07:26.279Z,48353
2018-08-18T09:07:56.320Z,84717
2018-08-18T09:08:26.339Z,59113
2018-08-18T09:08:56.382Z,54217
2018-08-18T09:09:26.438Z,56033
2018-08-18T09:09:56.415Z,52387
2018-08-18T09:10:26.611Z,53123
2018-08-18T09:10:56.450Z,52907
2018-08-18T09:11:26.496Z,53767
2018-08-18T09:11:56.533Z,55267
2018-08-18T09:12:26.595Z,58643
2018-08-18T09:12:56.623Z,62290
2018-08-18T09:13:26.607Z,72177
2018-08-18T09:13:56.647Z,67290
2018-08-18T09:14:26.769Z,61567
2018-08-18T09:14:56.711Z,59510
2018-08-18T09:15:26.734Z,60627
2018-08-18T09:15:56.782Z,63743
2018-08-18T09:16:26.795Z,100593
2018-08-18T09:16:56.828Z,77753
2018-08-18T09:17:26.851Z,119157
2018-08-18T09:17:56.893Z,123600
2018-08-18T09:18:26.937Z,124063
2018-08-18T09:18:56.944Z,124013
2018-08-18T09:19:27.080Z,119593
2018-08-18T09:19:57.012Z,89807
2018-08-18T09:20:27.077Z,70397
2018-08-18T09:20:57.074Z,82287
2018-08-18T09:21:27.114Z,97353
2018-08-18T09:21:57.189Z,65263
2018-08-18T09:22:27.179Z,72127
2018-08-18T09:22:57.260Z,90557
2018-08-18T09:23:27.225Z,61510
2018-08-18T09:23:57.331Z,58463
2018-08-18T09:24:27.325Z,56553
2018-08-18T09:24:57.385Z,65267
2018-08-18T09:25:27.391Z,107717
2018-08-18T09:25:57.418Z,127130
2018-08-18T09:26:27.480Z,81973
2018-08-18T09:26:57.472Z,125460
2018-08-18T09:27:27.525Z,123880
2018-08-18T09:27:57.540Z,102280
2018-08-18T09:28:27.615Z,82820
2018-08-18T09:28:57.584Z,70640
2018-08-18T09:29:27.710Z,76600
2018-08-18T09:29:57.642Z,75563
2018-08-18T09:30:27.710Z,90397
2018-08-18T09:30:57.741Z,61447
2018-08-18T09:31:27.754Z,54183
2018-08-18T09:31:57.759Z,56773
2018-08-18T09:32:27.785Z,59907
2018-08-18T09:32:57.900Z,67387
2018-08-18T09:33:27.840Z,62957
2018-08-18T09:33:57.871Z,67060
2018-08-18T09:34:27.963Z,58247
2018-08-18T09:34:58.080Z,55237
2018-08-18T09:35:27.966Z,45977
2018-08-18T09:35:57.998Z,76067
2018-08-18T09:36:28.036Z,55240
2018-08-18T09:36:58.071Z,67257
2018-08-18T09:37:28.093Z,59920
2018-08-18T09:37:58.120Z,57783
2018-08-18T09:38:28.150Z,52297
2018-08-18T09:38:58.218Z,44903
2018-08-18T09:39:28.335Z,41957
2018-08-18T09:39:58.250Z,46243
2018-08-18T09:40:28.285Z,44817
2018-08-18T09:40:58.303Z,49653
2018-08-18T09:41:28.372Z,40223
2018-08-18T09:41:58.424Z,37040
2018-08-18T09:42:28.435Z,35430
2018-08-18T09:42:58.470Z,33740
2018-08-18T09:43:28.534Z,32020
2018-08-18T09:43:58.521Z,31377
2018-08-18T09:44:28.619Z,31720
2018-08-18T09:44:58.577Z,29333
2018-08-18T09:45:28.719Z,30167
2018-08-18T09:45:58.658Z,31907
2018-08-18T09:46:28.798Z,33390
2018-08-18T09:46:58.703Z,39893
2018-08-18T09:47:28.748Z,37320
2018-08-18T09:47:58.782Z,35097
2018-08-18T09:48:28.805Z,34777
2018-08-18T09:48:58.874Z,34543
2018-08-18T09:49:28.904Z,33883
2018-08-18T09:49:58.934Z,32690
2018-08-18T09:50:28.940Z,32010
2018-08-18T09:50:58.953Z,31657
2018-08-18T09:51:28.976Z,31513
2018-08-18T09:51:59.063Z,32177
2018-08-18T09:52:29.053Z,32593
2018-08-18T09:52:59.041Z,34930
2018-08-18T09:53:29.143Z,52080
2018-08-18T09:53:59.153Z,36683
2018-08-18T09:54:29.237Z,39667
2018-08-18T09:54:59.221Z,84107
2018-08-18T09:55:29.236Z,115090
2018-08-18T09:55:59.281Z,52400
2018-08-18T09:56:29.298Z,35250
2018-08-18T09:56:59.365Z,34690
2018-08-18T09:57:29.321Z,33310
2018-08-18T09:57:59.427Z,33857
2018-08-18T09:58:29.423Z,43203
2018-08-18T09:58:59.461Z,44847
2018-08-18T09:59:29.479Z,74963
2018-08-18T09:59:59.488Z,74027
2018-08-18T10:00:29.569Z,60167
2018-08-18T10:00:59.590Z,102133
2018-08-18T10:01:29.574Z,89307
2018-08-18T10:01:59.655Z,101580
2018-08-18T10:02:29.667Z,103300
2018-08-18T10:02:59.667Z,78283
2018-08-18T10:03:29.699Z,101973
2018-08-18T10:03:59.717Z,54877
2018-08-18T10:04:29.785Z,64623
2018-08-18T10:04:59.783Z,98363
2018-08-18T10:05:29.830Z,107100
2018-08-18T10:05:59.848Z,105843
2018-08-18T10:06:29.974Z,107883
2018-08-18T10:06:59.925Z,109427
2018-08-18T10:07:29.943Z,78053
2018-08-18T10:07:59.988Z,105637
2018-08-18T10:08:30.000Z,96817
2018-08-18T10:09:00.036Z,106647
2018-08-18T10:09:30.133Z,106800
2018-08-18T10:10:00.098Z,105787
2018-08-18T10:10:30.121Z,103033
2018-08-18T10:11:00.224Z,104323
2018-08-18T10:11:30.229Z,108477
2018-08-18T10:12:01.967Z,108600
2018-08-18T10:12:30.260Z,108413
2018-08-18T10:13:02.636Z,101893
2018-08-18T10:13:30.387Z,104030
2018-08-18T10:14:02.928Z,104227
2018-08-18T10:14:30.414Z,104237
2018-08-18T10:15:00.939Z,108437
2018-08-18T10:15:30.483Z,108397